createdAt,value
2023-01-26T00:02:27.687Z,46.28
2023-01-26T00:04:55.661Z,46.25
2023-01-26T00:07:23.733Z,48.47
2023-01-26T00:09:51.767Z,47.85
2023-01-26T00:12:19.747Z,39.55
2023-01-26T00:14:50.265Z,40.40
2023-01-26T00:17:26.277Z,43.60
2023-01-26T00:19:56.588Z,43.63
2023-01-26T00:22:26.488Z,34.67
2023-01-26T00:24:55.207Z,32.20
2023-01-26T00:27:23.101Z,34.67
2023-01-26T00:29:51.461Z,36.75
2023-01-26T00:32:20.319Z,32.55
2023-01-26T00:34:49.919Z,32.83
2023-01-26T00:37:18.376Z,36.83
2023-01-26T00:39:46.370Z,38.22
2023-01-26T00:42:14.498Z,41.97
2023-01-26T00:44:44.377Z,40.90
2023-01-26T00:47:14.426Z,37.50
2023-01-26T00:49:42.357Z,39.25
2023-01-26T00:52:11.877Z,37.88
2023-01-26T00:54:40.333Z,35.40
2023-01-26T00:57:08.789Z,36.30
2023-01-26T00:59:36.894Z,32.58
2023-01-26T01:02:05.099Z,32.47
2023-01-26T01:04:33.957Z,31.58
2023-01-26T01:07:01.995Z,28.10
2023-01-26T01:09:30.601Z,30.10
2023-01-26T01:11:58.511Z,24.88
2023-01-26T01:14:26.760Z,27.20
2023-01-26T01:16:55.669Z,34.38
2023-01-26T01:19:23.619Z,34.53
2023-01-26T01:21:52.347Z,33.97
2023-01-26T01:24:20.698Z,33.55
2023-01-26T01:26:49.386Z,35.22
2023-01-26T01:29:17.392Z,41.20
2023-01-26T01:31:45.931Z,40.17
2023-01-26T01:34:13.872Z,40.20
2023-01-26T01:36:41.875Z,37.67
2023-01-26T01:39:10.007Z,40.15
2023-01-26T01:41:37.974Z,38.47
2023-01-26T01:44:23.890Z,36.92
2023-01-26T01:46:54.178Z,37.88
2023-01-26T01:49:22.131Z,37.13
2023-01-26T01:52:06.287Z,37.90
2023-01-26T01:54:48.980Z,34.58
2023-01-26T01:57:27.963Z,31.40
2023-01-26T02:00:09.936Z,34.10
2023-01-26T02:02:44.449Z,30.17
2023-01-26T02:05:36.067Z,33.38
2023-01-26T02:08:04.906Z,39.63
2023-01-26T02:10:33.609Z,37.42
2023-01-26T02:13:03.113Z,39.60
2023-01-26T02:15:31.713Z,41.35
2023-01-26T02:18:03.397Z,45.00
2023-01-26T02:20:52.074Z,44.92
2023-01-26T02:23:39.536Z,38.47
2023-01-26T02:26:36.082Z,36.80
2023-01-26T02:29:08.751Z,35.05
2023-01-26T02:31:41.421Z,36.13
2023-01-26T02:34:09.620Z,42.38
2023-01-26T02:36:38.199Z,32.58
2023-01-26T02:39:24.632Z,27.73
2023-01-26T02:42:15.081Z,24.80
2023-01-26T02:44:44.591Z,27.48
2023-01-26T02:47:18.030Z,19.08
2023-01-26T02:49:47.759Z,17.65
2023-01-26T02:52:23.237Z,21.88
2023-01-26T02:55:25.056Z,17.88
2023-01-26T02:58:05.120Z,24.00
2023-01-26T03:00:37.578Z,19.58
2023-01-26T03:03:42.161Z,16.98
2023-01-26T03:06:12.399Z,21.30
2023-01-26T03:08:40.631Z,28.17
2023-01-26T03:11:10.065Z,28.67
2023-01-26T03:13:38.484Z,29.08
2023-01-26T03:16:25.181Z,31.83
2023-01-26T03:19:05.106Z,33.38
2023-01-26T03:21:52.444Z,34.78
2023-01-26T03:24:39.107Z,34.47
2023-01-26T03:27:28.278Z,34.92
2023-01-26T03:30:01.614Z,38.38
2023-01-26T03:32:31.139Z,42.58
2023-01-26T03:35:00.553Z,44.65
2023-01-26T03:37:34.658Z,41.03
2023-01-26T03:40:26.130Z,40.83
2023-01-26T03:43:12.406Z,38.65
2023-01-26T03:46:00.229Z,38.22
2023-01-26T03:48:49.043Z,34.92
2023-01-26T03:51:36.752Z,39.38
2023-01-26T03:54:23.660Z,38.70
2023-01-26T03:56:52.457Z,34.78
2023-01-26T03:59:38.244Z,35.42
2023-01-26T04:02:30.605Z,36.53
2023-01-26T04:05:18.276Z,32.90
2023-01-26T04:08:08.722Z,31.98
2023-01-26T04:10:36.879Z,33.38
2023-01-26T04:13:24.783Z,32.78
2023-01-26T04:16:21.283Z,34.03
2023-01-26T04:19:09.264Z,36.33
2023-01-26T04:21:38.292Z,37.40
2023-01-26T04:24:17.140Z,36.97
2023-01-26T04:26:46.615Z,34.03
2023-01-26T04:29:18.881Z,32.67
2023-01-26T04:31:48.279Z,33.28
2023-01-26T04:34:20.764Z,31.08
2023-01-26T04:36:50.466Z,27.60
2023-01-26T04:39:20.128Z,28.13
2023-01-26T04:41:53.288Z,29.73
2023-01-26T04:44:21.915Z,31.00
2023-01-26T04:46:50.227Z,25.77
2023-01-26T04:49:19.771Z,27.55
2023-01-26T04:51:48.108Z,24.58
2023-01-26T04:54:16.143Z,25.50
2023-01-26T04:56:46.613Z,24.45
2023-01-26T04:59:15.125Z,22.98
2023-01-26T05:01:44.768Z,26.50
2023-01-26T05:04:13.221Z,25.88
2023-01-26T05:06:45.257Z,26.40
2023-01-26T05:09:13.540Z,26.13
2023-01-26T05:11:44.181Z,25.23
2023-01-26T05:14:32.411Z,23.63
2023-01-26T05:17:19.896Z,22.48
2023-01-26T05:20:24.037Z,24.83
2023-01-26T05:23:18.089Z,26.08
2023-01-26T05:26:05.545Z,27.00
2023-01-26T05:28:44.735Z,26.65
2023-01-26T05:31:13.356Z,38.88
2023-01-26T05:33:42.230Z,24.45
2023-01-26T05:36:13.663Z,30.10
2023-01-26T05:38:43.553Z,30.23
2023-01-26T05:41:11.666Z,30.25
2023-01-26T05:43:56.571Z,41.00
2023-01-26T05:46:36.270Z,31.90
2023-01-26T05:49:05.040Z,27.55
2023-01-26T05:51:34.022Z,29.27
2023-01-26T05:54:01.936Z,27.73
2023-01-26T05:56:30.439Z,22.48
2023-01-26T05:59:02.328Z,24.98
2023-01-26T06:01:30.993Z,27.13
2023-01-26T06:04:02.904Z,35.90
2023-01-26T06:06:39.278Z,25.85
2023-01-26T06:09:27.790Z,22.23
2023-01-26T06:12:05.690Z,23.42
2023-01-26T06:14:47.832Z,24.42
2023-01-26T06:17:18.576Z,23.52
2023-01-26T06:19:48.136Z,26.85
2023-01-26T06:22:16.573Z,25.10
2023-01-26T06:24:48.071Z,26.15
2023-01-26T06:27:18.755Z,33.95
2023-01-26T06:29:49.004Z,31.73
2023-01-26T06:32:17.336Z,29.08
2023-01-26T06:34:47.692Z,26.27
2023-01-26T06:37:15.951Z,35.53
2023-01-26T06:39:45.539Z,31.33
2023-01-26T06:42:13.476Z,30.35
2023-01-26T06:44:41.519Z,31.63
2023-01-26T06:47:09.625Z,31.00
2023-01-26T06:49:37.868Z,34.03
2023-01-26T06:52:31.134Z,32.00
2023-01-26T06:55:38.148Z,27.40
2023-01-26T06:58:25.293Z,29.58
2023-01-26T07:01:05.086Z,30.38
2023-01-26T07:03:36.384Z,32.58
2023-01-26T07:06:06.213Z,35.08
2023-01-26T07:08:34.675Z,35.47
2023-01-26T07:11:02.603Z,32.40
2023-01-26T07:13:30.790Z,40.63
2023-01-26T07:16:08.319Z,31.20
2023-01-26T07:18:37.508Z,31.90
2023-01-26T07:21:13.146Z,29.60
2023-01-26T07:23:41.641Z,28.20
2023-01-26T07:26:10.336Z,30.02
2023-01-26T07:28:40.308Z,38.78
2023-01-26T07:31:09.255Z,36.92
2023-01-26T07:33:37.450Z,42.97
2023-01-26T07:36:05.821Z,40.08
2023-01-26T07:38:35.063Z,35.63
2023-01-26T07:41:12.526Z,34.45
2023-01-26T07:43:42.272Z,33.97
2023-01-26T07:46:11.021Z,31.83
2023-01-26T07:48:39.955Z,32.40
2023-01-26T07:51:11.230Z,29.48
2023-01-26T07:53:42.426Z,28.92
2023-01-26T07:56:16.504Z,26.63
2023-01-26T07:58:44.444Z,25.48
2023-01-26T08:01:14.199Z,28.65
2023-01-26T08:03:45.574Z,26.52
2023-01-26T08:06:16.100Z,24.70
2023-01-26T08:08:45.329Z,24.98
2023-01-26T08:11:13.726Z,22.77
2023-01-26T08:13:42.203Z,20.90
2023-01-26T08:16:12.920Z,21.73
2023-01-26T08:18:46.405Z,22.88
2023-01-26T08:21:16.392Z,20.63
2023-01-26T08:23:48.611Z,21.73
2023-01-26T08:26:18.489Z,25.88
2023-01-26T08:28:47.633Z,24.27
2023-01-26T08:31:20.877Z,18.73
2023-01-26T08:33:51.106Z,16.00
2023-01-26T08:36:22.273Z,16.80
2023-01-26T08:38:52.470Z,16.92
2023-01-26T08:41:21.582Z,18.50
2023-01-26T08:43:51.390Z,19.50
2023-01-26T08:46:19.429Z,15.48
2023-01-26T08:48:47.468Z,16.20
2023-01-26T08:51:17.412Z,15.27
2023-01-26T08:53:46.284Z,14.32
2023-01-26T08:56:15.418Z,17.20
2023-01-26T08:58:43.936Z,17.25
2023-01-26T09:01:14.632Z,17.35
2023-01-26T09:03:43.548Z,15.27
2023-01-26T09:06:15.240Z,12.38
2023-01-26T09:08:43.322Z,10.38
2023-01-26T09:11:12.420Z,9.98
2023-01-26T09:14:24.019Z,9.25
2023-01-26T09:16:52.228Z,9.02
2023-01-26T09:19:20.212Z,7.82
2023-01-26T09:21:53.886Z,8.52
2023-01-26T09:24:22.974Z,8.10
2023-01-26T09:26:51.849Z,7.45
2023-01-26T09:29:20.416Z,6.60
2023-01-26T09:31:48.558Z,8.60
2023-01-26T09:34:16.606Z,9.00
2023-01-26T09:36:45.270Z,8.10
2023-01-26T09:39:13.247Z,6.75
2023-01-26T09:42:03.137Z,7.75
2023-01-26T09:44:40.101Z,16.65
2023-01-26T09:47:22.379Z,6.72
2023-01-26T09:50:02.481Z,4.80
2023-01-26T09:52:57.828Z,5.05
2023-01-26T09:55:27.454Z,4.47
2023-01-26T09:58:06.326Z,4.72
2023-01-26T10:00:50.725Z,4.53
2023-01-26T10:03:39.612Z,6.30
2023-01-26T10:06:28.319Z,5.57
2023-01-26T10:09:17.853Z,6.03
2023-01-26T10:11:51.134Z,5.82
2023-01-26T10:14:40.184Z,4.57
2023-01-26T10:17:17.565Z,5.30
2023-01-26T10:20:08.201Z,5.53
2023-01-26T10:23:01.397Z,6.05
2023-01-26T10:25:38.814Z,5.97
2023-01-26T10:28:17.853Z,5.97
2023-01-26T10:30:47.928Z,4.97
2023-01-26T10:33:20.562Z,4.97
2023-01-26T10:35:50.833Z,3.92
2023-01-26T10:38:33.619Z,4.15
2023-01-26T10:41:05.126Z,4.75
2023-01-26T10:43:37.125Z,3.90
2023-01-26T10:46:05.292Z,4.38
2023-01-26T10:48:35.813Z,3.35
2023-01-26T10:51:21.955Z,3.15
2023-01-26T10:53:50.173Z,3.40
2023-01-26T10:56:18.698Z,3.90
2023-01-26T10:59:08.111Z,4.00
2023-01-26T11:01:53.304Z,4.00
2023-01-26T11:04:21.492Z,4.13
2023-01-26T11:06:49.673Z,3.50
2023-01-26T11:09:27.475Z,3.95
2023-01-26T11:12:04.857Z,4.32
2023-01-26T11:14:33.556Z,4.45
2023-01-26T11:17:01.918Z,4.28
2023-01-26T11:19:43.936Z,4.50
2023-01-26T11:22:51.028Z,4.35
2023-01-26T11:25:25.086Z,4.30
2023-01-26T11:28:15.027Z,3.95
2023-01-26T11:31:07.319Z,3.65
2023-01-26T11:34:10.931Z,3.72
2023-01-26T11:36:45.676Z,3.53
2023-01-26T11:39:30.706Z,3.72
2023-01-26T11:42:38.153Z,3.75
2023-01-26T11:45:09.504Z,4.28
2023-01-26T11:47:40.558Z,3.85
2023-01-26T11:50:16.513Z,3.55
2023-01-26T11:53:19.897Z,4.85
2023-01-26T11:56:14.893Z,6.00
2023-01-26T11:58:46.761Z,6.03
2023-01-26T12:01:47.260Z,4.57
2023-01-26T12:04:20.317Z,8.20
2023-01-26T12:07:11.512Z,5.57
2023-01-26T12:09:44.256Z,4.97
2023-01-26T12:12:18.055Z,5.35
2023-01-26T12:14:46.399Z,4.80
2023-01-26T12:17:32.565Z,4.30
2023-01-26T12:20:21.298Z,5.20
2023-01-26T12:23:12.563Z,3.95
2023-01-26T12:25:49.446Z,3.97
2023-01-26T12:28:29.294Z,4.32
2023-01-26T12:31:05.581Z,5.00
2023-01-26T12:33:36.389Z,4.15
2023-01-26T12:36:33.985Z,4.20
2023-01-26T12:39:08.979Z,5.05
2023-01-26T12:41:45.817Z,3.78
2023-01-26T12:44:59.782Z,4.15
2023-01-26T12:47:37.948Z,4.35
2023-01-26T12:50:31.321Z,3.72
2023-01-26T12:53:08.054Z,4.30
2023-01-26T12:56:08.664Z,4.20
2023-01-26T12:58:45.386Z,5.20
2023-01-26T13:01:19.189Z,4.78
2023-01-26T13:04:01.537Z,4.78
2023-01-26T13:06:30.646Z,4.78
2023-01-26T13:08:59.819Z,5.25
2023-01-26T13:11:45.027Z,5.28
2023-01-26T13:14:35.413Z,5.25
2023-01-26T13:17:38.247Z,5.30
2023-01-26T13:20:24.186Z,5.38
2023-01-26T13:22:56.377Z,5.65
2023-01-26T13:25:32.478Z,5.97
2023-01-26T13:28:03.291Z,5.40
2023-01-26T13:30:31.314Z,5.93
2023-01-26T13:33:26.003Z,5.60
2023-01-26T13:35:55.826Z,5.45
2023-01-26T13:38:33.070Z,5.00
2023-01-26T13:41:03.491Z,5.07
2023-01-26T13:43:51.119Z,4.57
2023-01-26T13:46:56.721Z,4.82
2023-01-26T13:49:40.983Z,4.80
2023-01-26T13:52:21.735Z,5.55
2023-01-26T13:54:51.432Z,5.30
2023-01-26T13:57:25.676Z,4.78
2023-01-26T14:00:01.989Z,5.15
2023-01-26T14:02:38.902Z,4.55
2023-01-26T14:05:09.916Z,4.70
2023-01-26T14:07:43.664Z,4.82
2023-01-26T14:10:20.502Z,5.07
2023-01-26T14:12:56.762Z,6.38
2023-01-26T14:15:30.642Z,4.90
2023-01-26T14:18:01.854Z,4.90
2023-01-26T14:20:32.527Z,5.07
2023-01-26T14:23:19.251Z,5.72
2023-01-26T14:25:57.720Z,6.45
2023-01-26T14:28:37.882Z,7.38
2023-01-26T14:31:32.486Z,7.68
2023-01-26T14:34:01.486Z,7.80
2023-01-26T14:36:34.878Z,7.75
2023-01-26T14:41:39.553Z,6.97
2023-01-26T14:44:10.554Z,7.95
2023-01-26T14:46:47.685Z,6.97
2023-01-26T14:49:32.395Z,7.50
2023-01-26T14:52:01.254Z,8.18
2023-01-26T14:54:32.546Z,7.28
2023-01-26T14:57:01.787Z,5.55
2023-01-26T14:59:38.586Z,6.85
2023-01-26T15:02:23.016Z,3.03
2023-01-26T15:05:03.674Z,5.93
2023-01-26T15:07:45.327Z,11.20
2023-01-26T15:10:37.440Z,3.17
2023-01-26T15:13:19.004Z,4.45
2023-01-26T15:16:00.384Z,3.35
2023-01-26T15:18:47.945Z,2.20
2023-01-26T15:21:21.954Z,3.30
2023-01-26T15:23:52.549Z,4.38
2023-01-26T15:26:30.067Z,9.90
2023-01-26T15:29:08.834Z,9.82
2023-01-26T15:31:42.850Z,3.78
2023-01-26T15:34:38.819Z,6.07
2023-01-26T15:37:35.655Z,11.38
2023-01-26T15:40:12.083Z,6.38
2023-01-26T15:42:47.057Z,4.88
2023-01-26T15:45:37.195Z,4.93
2023-01-26T15:48:06.811Z,6.03
2023-01-26T15:50:45.915Z,9.43
2023-01-26T15:53:20.817Z,10.65
2023-01-26T15:56:00.595Z,4.20
2023-01-26T15:58:41.216Z,3.65
2023-01-26T16:01:26.187Z,4.93
2023-01-26T16:03:54.576Z,5.47
2023-01-26T16:06:26.255Z,5.93
2023-01-26T16:08:56.294Z,5.25
2023-01-26T16:11:31.308Z,3.72
2023-01-26T16:14:04.105Z,3.47
2023-01-26T16:16:33.149Z,5.72
2023-01-26T16:19:01.167Z,6.63
2023-01-26T16:21:33.865Z,10.68
2023-01-26T16:24:02.653Z,23.20
2023-01-26T16:26:31.366Z,10.85
2023-01-26T16:28:59.715Z,7.70
2023-01-26T16:31:31.653Z,13.27
2023-01-26T16:34:01.241Z,12.05
2023-01-26T16:36:29.609Z,10.10
2023-01-26T16:38:58.588Z,10.65
2023-01-26T16:41:32.021Z,5.35
2023-01-26T16:46:30.375Z,7.20
2023-01-26T16:48:58.313Z,7.90
2023-01-26T16:51:32.786Z,9.25
2023-01-26T16:54:01.093Z,10.07
2023-01-26T16:56:29.090Z,12.43
2023-01-26T16:58:57.633Z,12.50
2023-01-26T17:01:33.083Z,12.98
2023-01-26T17:04:02.379Z,16.80
2023-01-26T17:06:30.613Z,16.45
2023-01-26T17:08:59.371Z,16.33
2023-01-26T17:11:29.705Z,17.77
2023-01-26T17:13:59.345Z,16.08
2023-01-26T17:16:32.193Z,20.15
2023-01-26T17:19:00.385Z,22.02
2023-01-26T17:21:29.339Z,24.90
2023-01-26T17:23:59.077Z,22.92
2023-01-26T17:26:27.454Z,19.90
2023-01-26T17:28:56.785Z,19.85
2023-01-26T17:31:26.113Z,18.33
2023-01-26T17:33:55.849Z,17.23
2023-01-26T17:36:24.334Z,19.00
2023-01-26T17:38:53.350Z,13.82
2023-01-26T17:41:21.517Z,10.55
2023-01-26T17:43:51.337Z,13.25
2023-01-26T17:46:22.276Z,17.10
2023-01-26T17:48:51.078Z,16.45
2023-01-26T17:51:21.250Z,16.42
2023-01-26T17:53:50.417Z,15.98
2023-01-26T17:56:21.286Z,12.93
2023-01-26T17:58:51.426Z,18.75
2023-01-26T18:01:20.632Z,14.13
2023-01-26T18:03:49.853Z,12.75
2023-01-26T18:06:18.296Z,12.20
2023-01-26T18:08:46.228Z,24.75
2023-01-26T18:11:15.789Z,12.02
2023-01-26T18:13:44.680Z,22.30
2023-01-26T18:16:19.162Z,21.63
2023-01-26T18:18:47.932Z,22.40
2023-01-26T18:21:16.862Z,19.35
2023-01-26T18:23:53.322Z,24.20
2023-01-26T18:26:24.044Z,19.50
2023-01-26T18:28:52.326Z,31.77
2023-01-26T18:31:41.012Z,19.95
2023-01-26T18:34:12.188Z,15.93
2023-01-26T18:36:40.688Z,19.05
2023-01-26T18:39:13.939Z,21.02
2023-01-26T18:44:12.912Z,24.40
2023-01-26T18:46:41.668Z,29.63
2023-01-26T18:49:10.949Z,27.17
2023-01-26T18:51:38.992Z,29.55
2023-01-26T18:54:09.735Z,27.20
2023-01-26T18:56:37.763Z,32.83
2023-01-26T18:59:06.755Z,35.92
2023-01-26T19:01:35.591Z,34.45
2023-01-26T19:04:06.977Z,40.55
2023-01-26T19:06:36.397Z,33.28
2023-01-26T19:09:07.311Z,34.92
2023-01-26T19:11:37.720Z,34.47
2023-01-26T19:14:08.301Z,34.95
2023-01-26T19:16:37.029Z,31.55
2023-01-26T19:19:05.986Z,35.33
2023-01-26T19:21:34.427Z,31.95
2023-01-26T19:24:06.211Z,33.13
2023-01-26T19:26:34.903Z,39.75
2023-01-26T19:29:04.021Z,38.08
2023-01-26T19:31:33.233Z,41.97
2023-01-26T19:34:03.296Z,38.90
2023-01-26T19:36:33.254Z,42.95
2023-01-26T19:39:02.925Z,46.85
2023-01-26T19:41:32.067Z,41.92
2023-01-26T19:44:01.007Z,41.63
2023-01-26T19:46:29.063Z,38.72
2023-01-26T19:48:57.591Z,35.00
2023-01-26T19:51:27.065Z,34.20
2023-01-26T19:53:59.597Z,37.35
2023-01-26T19:56:32.609Z,38.47
2023-01-26T19:59:03.564Z,32.60
2023-01-26T20:01:32.894Z,33.20
2023-01-26T20:04:04.384Z,29.52
2023-01-26T20:06:34.180Z,33.28
2023-01-26T20:09:03.940Z,26.55
2023-01-26T20:11:34.204Z,28.58
2023-01-26T20:14:06.142Z,46.33
2023-01-26T20:16:35.334Z,41.38
2023-01-26T20:19:07.056Z,34.60
2023-01-26T20:21:35.759Z,29.60
2023-01-26T20:24:06.086Z,31.02
2023-01-26T20:26:44.757Z,33.28
2023-01-26T20:29:15.756Z,29.63
2023-01-26T20:31:45.218Z,27.25
2023-01-26T20:34:15.041Z,25.95
2023-01-26T20:36:43.238Z,29.05
2023-01-26T20:39:14.803Z,32.92
2023-01-26T20:41:42.947Z,31.23
2023-01-26T20:44:11.450Z,41.92
2023-01-26T20:46:41.509Z,43.60
2023-01-26T20:49:14.166Z,41.53
2023-01-26T20:51:45.312Z,41.78
2023-01-26T20:54:16.727Z,36.17
2023-01-26T20:56:49.975Z,33.28
2023-01-26T20:59:19.379Z,36.63
2023-01-26T21:01:48.021Z,35.42
2023-01-26T21:04:16.597Z,34.15
2023-01-26T21:06:45.095Z,30.50
2023-01-26T21:09:13.196Z,33.72
2023-01-26T21:11:41.250Z,37.15
2023-01-26T21:14:13.627Z,32.03
2023-01-26T21:16:42.746Z,36.70
2023-01-26T21:19:10.991Z,35.28
2023-01-26T21:21:39.451Z,34.38
2023-01-26T21:24:07.964Z,33.67
2023-01-26T21:26:35.915Z,40.42
2023-01-26T21:29:05.754Z,42.15
2023-01-26T21:31:34.761Z,39.78
2023-01-26T21:34:02.987Z,40.88
2023-01-26T21:36:32.807Z,43.28
2023-01-26T21:39:01.507Z,43.53
2023-01-26T21:41:54.052Z,41.85
2023-01-26T21:44:27.312Z,39.08
2023-01-26T21:46:57.530Z,36.50
2023-01-26T21:49:26.158Z,38.20
2023-01-26T21:52:13.298Z,38.67
2023-01-26T21:54:41.799Z,41.17
2023-01-26T21:57:38.027Z,42.38
2023-01-26T22:00:06.924Z,40.05
2023-01-26T22:02:34.997Z,40.47
2023-01-26T22:05:03.147Z,43.58
2023-01-26T22:07:32.307Z,33.72
2023-01-26T22:10:00.742Z,34.78
2023-01-26T22:12:28.724Z,37.15
2023-01-26T22:14:57.426Z,41.20
2023-01-26T22:17:26.198Z,45.30
2023-01-26T22:19:55.900Z,44.45
2023-01-26T22:22:24.436Z,40.45
2023-01-26T22:24:52.467Z,35.20
2023-01-26T22:27:20.589Z,32.30
2023-01-26T22:29:49.093Z,31.75
2023-01-26T22:32:17.569Z,31.88
2023-01-26T22:34:45.586Z,31.90
2023-01-26T22:37:13.476Z,32.00
2023-01-26T22:39:41.368Z,33.38
2023-01-26T22:42:09.790Z,26.70
2023-01-26T22:44:38.247Z,26.45
2023-01-26T22:47:06.789Z,27.70
2023-01-26T22:49:34.974Z,30.15
2023-01-26T22:52:06.867Z,29.90
2023-01-26T22:54:35.697Z,33.42
2023-01-26T22:57:03.989Z,32.38
2023-01-26T22:59:32.700Z,32.70
2023-01-26T23:02:00.792Z,36.40
2023-01-26T23:04:28.963Z,45.03
2023-01-26T23:06:57.077Z,37.92
2023-01-26T23:09:25.032Z,29.55
2023-01-26T23:12:03.271Z,37.03
2023-01-26T23:14:34.407Z,35.95
2023-01-26T23:17:02.752Z,36.60
2023-01-26T23:19:30.807Z,35.10
2023-01-26T23:21:58.806Z,37.83
2023-01-26T23:24:26.919Z,43.17
2023-01-26T23:26:55.631Z,47.13
2023-01-26T23:29:49.244Z,47.55
2023-01-26T23:32:17.146Z,44.75
2023-01-26T23:34:44.997Z,42.38
2023-01-26T23:37:12.926Z,43.35
2023-01-26T23:39:40.789Z,49.60
2023-01-26T23:42:08.693Z,45.63
2023-01-26T23:44:36.619Z,41.03
2023-01-26T23:47:04.636Z,42.10
2023-01-26T23:49:32.559Z,41.13
2023-01-26T23:52:00.706Z,36.42
2023-01-26T23:54:28.578Z,28.15
2023-01-26T23:56:56.725Z,32.90
2023-01-26T23:59:24.683Z,31.02
